<?xml version="1.0" encoding="UTF-8" standalone="no" ?>
<gpx xmlns="http://www.topografix.com/GPX/1/1" xmlns:xsi="http://www.w3.org/2001/XMLSchema-instance" xsi:schemaLocation="http://www.topografix.com/GPX/1/1 http://www.topografix.com/GPX/1/1/gpx.xsd" version="1.1" creator="VisuGPX - https://www.visugpx.com">
  <metadata>
    <name>9653374-AUBARD - CACHETTES DU DAHUT 12</name>
  </metadata>
  <trk>
    <name><![CDATA[9653374-AUBARD - CACHETTES DU DAHUT 12]]></name>
    <trkseg>
      <trkpt lat="46.24743" lon="4.1567">
        <ele>446</ele>
        <time>2019-03-10T10:50:26Z</time>
      </trkpt>
      <trkpt lat="46.24724" lon="4.15648">
        <ele>445</ele>
        <time>2019-03-10T10:51:26Z</time>
      </trkpt>
      <trkpt lat="46.24698" lon="4.15632">
        <ele>444</ele>
        <time>2019-03-10T10:52:26Z</time>
      </trkpt>
      <trkpt lat="46.24612" lon="4.15614">
        <ele>439</ele>
        <time>2019-03-10T10:53:26Z</time>
      </trkpt>
      <trkpt lat="46.24596" lon="4.15607">
        <ele>438</ele>
        <time>2019-03-10T10:54:26Z</time>
      </trkpt>
      <trkpt lat="46.24584" lon="4.15598">
        <ele>437</ele>
        <time>2019-03-10T10:55:26Z</time>
      </trkpt>
      <trkpt lat="46.24567" lon="4.15581">
        <ele>436</ele>
        <time>2019-03-10T10:56:26Z</time>
      </trkpt>
      <trkpt lat="46.24538" lon="4.15538">
        <ele>432</ele>
        <time>2019-03-10T10:57:26Z</time>
      </trkpt>
      <trkpt lat="46.24529" lon="4.15532">
        <ele>431</ele>
        <time>2019-03-10T10:58:26Z</time>
      </trkpt>
      <trkpt lat="46.24445" lon="4.15511">
        <ele>421</ele>
        <time>2019-03-10T10:59:26Z</time>
      </trkpt>
      <trkpt lat="46.24427" lon="4.15497">
        <ele>418</ele>
        <time>2019-03-10T11:00:26Z</time>
      </trkpt>
      <trkpt lat="46.24388" lon="4.15462">
        <ele>409</ele>
        <time>2019-03-10T11:01:26Z</time>
      </trkpt>
      <trkpt lat="46.24363" lon="4.15444">
        <ele>404</ele>
        <time>2019-03-10T11:02:26Z</time>
      </trkpt>
      <trkpt lat="46.24327" lon="4.15425">
        <ele>399</ele>
        <time>2019-03-10T11:03:26Z</time>
      </trkpt>
      <trkpt lat="46.2431" lon="4.15421">
        <ele>397</ele>
        <time>2019-03-10T11:04:26Z</time>
      </trkpt>
      <trkpt lat="46.2429" lon="4.15422">
        <ele>395</ele>
        <time>2019-03-10T11:05:26Z</time>
      </trkpt>
      <trkpt lat="46.24266" lon="4.15432">
        <ele>394</ele>
        <time>2019-03-10T11:06:26Z</time>
      </trkpt>
      <trkpt lat="46.24249" lon="4.15445">
        <ele>393</ele>
        <time>2019-03-10T11:07:26Z</time>
      </trkpt>
      <trkpt lat="46.2421" lon="4.15485">
        <ele>393</ele>
        <time>2019-03-10T11:08:26Z</time>
      </trkpt>
      <trkpt lat="46.24203" lon="4.15485">
        <ele>392</ele>
        <time>2019-03-10T11:09:26Z</time>
      </trkpt>
      <trkpt lat="46.24196" lon="4.1548">
        <ele>391</ele>
        <time>2019-03-10T11:10:26Z</time>
      </trkpt>
      <trkpt lat="46.24154" lon="4.15426">
        <ele>391</ele>
        <time>2019-03-10T11:11:26Z</time>
      </trkpt>
      <trkpt lat="46.24141" lon="4.15411">
        <ele>393</ele>
        <time>2019-03-10T11:12:26Z</time>
      </trkpt>
      <trkpt lat="46.24131" lon="4.15407">
        <ele>394</ele>
        <time>2019-03-10T11:13:26Z</time>
      </trkpt>
      <trkpt lat="46.24112" lon="4.15387">
        <ele>396</ele>
        <time>2019-03-10T11:14:26Z</time>
      </trkpt>
      <trkpt lat="46.24108" lon="4.15378">
        <ele>397</ele>
        <time>2019-03-10T11:15:26Z</time>
      </trkpt>
      <trkpt lat="46.24101" lon="4.15347">
        <ele>400</ele>
        <time>2019-03-10T11:16:26Z</time>
      </trkpt>
      <trkpt lat="46.241" lon="4.15334">
        <ele>401</ele>
        <time>2019-03-10T11:17:26Z</time>
      </trkpt>
      <trkpt lat="46.24093" lon="4.15316">
        <ele>402</ele>
        <time>2019-03-10T11:18:26Z</time>
      </trkpt>
      <trkpt lat="46.24089" lon="4.15314">
        <ele>402</ele>
        <time>2019-03-10T11:19:26Z</time>
      </trkpt>
      <trkpt lat="46.24083" lon="4.15315">
        <ele>403</ele>
        <time>2019-03-10T11:20:26Z</time>
      </trkpt>
      <trkpt lat="46.24038" lon="4.15344">
        <ele>404</ele>
        <time>2019-03-10T11:21:26Z</time>
      </trkpt>
      <trkpt lat="46.24014" lon="4.15355">
        <ele>405</ele>
        <time>2019-03-10T11:22:26Z</time>
      </trkpt>
      <trkpt lat="46.23988" lon="4.15362">
        <ele>406</ele>
        <time>2019-03-10T11:23:26Z</time>
      </trkpt>
      <trkpt lat="46.23972" lon="4.15363">
        <ele>406</ele>
        <time>2019-03-10T11:24:26Z</time>
      </trkpt>
      <trkpt lat="46.23907" lon="4.15345">
        <ele>408</ele>
        <time>2019-03-10T11:25:26Z</time>
      </trkpt>
      <trkpt lat="46.23895" lon="4.15347">
        <ele>408</ele>
        <time>2019-03-10T11:26:26Z</time>
      </trkpt>
      <trkpt lat="46.23882" lon="4.15353">
        <ele>409</ele>
        <time>2019-03-10T11:27:26Z</time>
      </trkpt>
      <trkpt lat="46.23795" lon="4.15409">
        <ele>411</ele>
        <time>2019-03-10T11:28:26Z</time>
      </trkpt>
      <trkpt lat="46.23728" lon="4.15447">
        <ele>412</ele>
        <time>2019-03-10T11:29:26Z</time>
      </trkpt>
      <trkpt lat="46.23746" lon="4.1554">
        <ele>409</ele>
        <time>2019-03-10T11:30:26Z</time>
      </trkpt>
      <trkpt lat="46.23731" lon="4.15607">
        <ele>407</ele>
        <time>2019-03-10T11:31:26Z</time>
      </trkpt>
      <trkpt lat="46.2373" lon="4.15656">
        <ele>406</ele>
        <time>2019-03-10T11:32:26Z</time>
      </trkpt>
      <trkpt lat="46.23737" lon="4.15675">
        <ele>405</ele>
        <time>2019-03-10T11:33:26Z</time>
      </trkpt>
      <trkpt lat="46.23753" lon="4.15704">
        <ele>405</ele>
        <time>2019-03-10T11:34:26Z</time>
      </trkpt>
      <trkpt lat="46.23766" lon="4.15738">
        <ele>404</ele>
        <time>2019-03-10T11:35:26Z</time>
      </trkpt>
      <trkpt lat="46.23772" lon="4.15759">
        <ele>404</ele>
        <time>2019-03-10T11:36:26Z</time>
      </trkpt>
      <trkpt lat="46.23789" lon="4.15808">
        <ele>403</ele>
        <time>2019-03-10T11:37:26Z</time>
      </trkpt>
      <trkpt lat="46.238" lon="4.15831">
        <ele>402</ele>
        <time>2019-03-10T11:38:26Z</time>
      </trkpt>
      <trkpt lat="46.23831" lon="4.1592">
        <ele>396</ele>
        <time>2019-03-10T11:39:26Z</time>
      </trkpt>
      <trkpt lat="46.23832" lon="4.1592">
        <ele>396</ele>
        <time>2019-03-10T11:40:26Z</time>
      </trkpt>
      <trkpt lat="46.23845" lon="4.15996">
        <ele>392</ele>
        <time>2019-03-10T11:41:26Z</time>
      </trkpt>
      <trkpt lat="46.23845" lon="4.15996">
        <ele>392</ele>
        <time>2019-03-10T11:42:26Z</time>
      </trkpt>
      <trkpt lat="46.2384" lon="4.1611">
        <ele>390</ele>
        <time>2019-03-10T11:43:26Z</time>
      </trkpt>
      <trkpt lat="46.2384" lon="4.1611">
        <ele>390</ele>
        <time>2019-03-10T11:44:26Z</time>
      </trkpt>
      <trkpt lat="46.23809" lon="4.16182">
        <ele>386</ele>
        <time>2019-03-10T11:45:26Z</time>
      </trkpt>
      <trkpt lat="46.23809" lon="4.16182">
        <ele>386</ele>
        <time>2019-03-10T11:46:26Z</time>
      </trkpt>
      <trkpt lat="46.23759" lon="4.16247">
        <ele>379</ele>
        <time>2019-03-10T11:47:26Z</time>
      </trkpt>
      <trkpt lat="46.23759" lon="4.16247">
        <ele>379</ele>
        <time>2019-03-10T11:48:26Z</time>
      </trkpt>
      <trkpt lat="46.23545" lon="4.16475">
        <ele>377</ele>
        <time>2019-03-10T11:49:26Z</time>
      </trkpt>
      <trkpt lat="46.23545" lon="4.16475">
        <ele>377</ele>
        <time>2019-03-10T11:50:26Z</time>
      </trkpt>
      <trkpt lat="46.23526" lon="4.16538">
        <ele>375</ele>
        <time>2019-03-10T11:51:26Z</time>
      </trkpt>
      <trkpt lat="46.23526" lon="4.16538">
        <ele>375</ele>
        <time>2019-03-10T11:52:26Z</time>
      </trkpt>
      <trkpt lat="46.23501" lon="4.16614">
        <ele>370</ele>
        <time>2019-03-10T11:53:26Z</time>
      </trkpt>
      <trkpt lat="46.23501" lon="4.16614">
        <ele>370</ele>
        <time>2019-03-10T11:54:26Z</time>
      </trkpt>
      <trkpt lat="46.23446" lon="4.16675">
        <ele>367</ele>
        <time>2019-03-10T11:55:26Z</time>
      </trkpt>
      <trkpt lat="46.23446" lon="4.16675">
        <ele>367</ele>
        <time>2019-03-10T11:56:26Z</time>
      </trkpt>
      <trkpt lat="46.23284" lon="4.16852">
        <ele>360</ele>
        <time>2019-03-10T11:57:26Z</time>
      </trkpt>
      <trkpt lat="46.23284" lon="4.16852">
        <ele>360</ele>
        <time>2019-03-10T11:58:26Z</time>
      </trkpt>
      <trkpt lat="46.23254" lon="4.16946">
        <ele>359</ele>
        <time>2019-03-10T11:59:26Z</time>
      </trkpt>
      <trkpt lat="46.23254" lon="4.16946">
        <ele>359</ele>
        <time>2019-03-10T12:00:26Z</time>
      </trkpt>
      <trkpt lat="46.23186" lon="4.16976">
        <ele>362</ele>
        <time>2019-03-10T12:01:26Z</time>
      </trkpt>
      <trkpt lat="46.23186" lon="4.16976">
        <ele>362</ele>
        <time>2019-03-10T12:02:26Z</time>
      </trkpt>
      <trkpt lat="46.23091" lon="4.16873">
        <ele>376</ele>
        <time>2019-03-10T12:03:26Z</time>
      </trkpt>
      <trkpt lat="46.23091" lon="4.16873">
        <ele>376</ele>
        <time>2019-03-10T12:04:26Z</time>
      </trkpt>
      <trkpt lat="46.2304" lon="4.16963">
        <ele>377</ele>
        <time>2019-03-10T12:05:26Z</time>
      </trkpt>
      <trkpt lat="46.2304" lon="4.16963">
        <ele>377</ele>
        <time>2019-03-10T12:06:26Z</time>
      </trkpt>
      <trkpt lat="46.22963" lon="4.17211">
        <ele>375</ele>
        <time>2019-03-10T12:07:26Z</time>
      </trkpt>
      <trkpt lat="46.22963" lon="4.17211">
        <ele>375</ele>
        <time>2019-03-10T12:08:26Z</time>
      </trkpt>
      <trkpt lat="46.22891" lon="4.17333">
        <ele>377</ele>
        <time>2019-03-10T12:09:26Z</time>
      </trkpt>
      <trkpt lat="46.22891" lon="4.17333">
        <ele>377</ele>
        <time>2019-03-10T12:10:26Z</time>
      </trkpt>
      <trkpt lat="46.22843" lon="4.1744">
        <ele>374</ele>
        <time>2019-03-10T12:11:26Z</time>
      </trkpt>
      <trkpt lat="46.22843" lon="4.1744">
        <ele>374</ele>
        <time>2019-03-10T12:12:26Z</time>
      </trkpt>
      <trkpt lat="46.22836" lon="4.17522">
        <ele>370</ele>
        <time>2019-03-10T12:13:26Z</time>
      </trkpt>
      <trkpt lat="46.22836" lon="4.17522">
        <ele>370</ele>
        <time>2019-03-10T12:14:26Z</time>
      </trkpt>
      <trkpt lat="46.22803" lon="4.17601">
        <ele>368</ele>
        <time>2019-03-10T12:15:26Z</time>
      </trkpt>
      <trkpt lat="46.22803" lon="4.17601">
        <ele>368</ele>
        <time>2019-03-10T12:16:26Z</time>
      </trkpt>
      <trkpt lat="46.22757" lon="4.17668">
        <ele>370</ele>
        <time>2019-03-10T12:17:26Z</time>
      </trkpt>
      <trkpt lat="46.22757" lon="4.17668">
        <ele>370</ele>
        <time>2019-03-10T12:18:26Z</time>
      </trkpt>
      <trkpt lat="46.22621" lon="4.17754">
        <ele>370</ele>
        <time>2019-03-10T12:19:26Z</time>
      </trkpt>
      <trkpt lat="46.22621" lon="4.17754">
        <ele>370</ele>
        <time>2019-03-10T12:20:26Z</time>
      </trkpt>
      <trkpt lat="46.22662" lon="4.18017">
        <ele>357</ele>
        <time>2019-03-10T12:21:26Z</time>
      </trkpt>
      <trkpt lat="46.22662" lon="4.18017">
        <ele>357</ele>
        <time>2019-03-10T12:22:26Z</time>
      </trkpt>
      <trkpt lat="46.22628" lon="4.18114">
        <ele>354</ele>
        <time>2019-03-10T12:23:26Z</time>
      </trkpt>
      <trkpt lat="46.22628" lon="4.18114">
        <ele>354</ele>
        <time>2019-03-10T12:24:26Z</time>
      </trkpt>
      <trkpt lat="46.22586" lon="4.18197">
        <ele>352</ele>
        <time>2019-03-10T12:25:26Z</time>
      </trkpt>
      <trkpt lat="46.22586" lon="4.18197">
        <ele>352</ele>
        <time>2019-03-10T12:26:26Z</time>
      </trkpt>
      <trkpt lat="46.22563" lon="4.18327">
        <ele>346</ele>
        <time>2019-03-10T12:27:26Z</time>
      </trkpt>
      <trkpt lat="46.22563" lon="4.18327">
        <ele>346</ele>
        <time>2019-03-10T12:28:26Z</time>
      </trkpt>
      <trkpt lat="46.22502" lon="4.1845">
        <ele>344</ele>
        <time>2019-03-10T12:29:26Z</time>
      </trkpt>
      <trkpt lat="46.22502" lon="4.1845">
        <ele>344</ele>
        <time>2019-03-10T12:30:26Z</time>
      </trkpt>
      <trkpt lat="46.22607" lon="4.18614">
        <ele>334</ele>
        <time>2019-03-10T12:31:26Z</time>
      </trkpt>
      <trkpt lat="46.22607" lon="4.18614">
        <ele>334</ele>
        <time>2019-03-10T12:32:26Z</time>
      </trkpt>
      <trkpt lat="46.22783" lon="4.18609">
        <ele>339</ele>
        <time>2019-03-10T12:33:26Z</time>
      </trkpt>
      <trkpt lat="46.22783" lon="4.18609">
        <ele>339</ele>
        <time>2019-03-10T12:34:26Z</time>
      </trkpt>
      <trkpt lat="46.22833" lon="4.18515">
        <ele>348</ele>
        <time>2019-03-10T12:35:26Z</time>
      </trkpt>
      <trkpt lat="46.22833" lon="4.18515">
        <ele>348</ele>
        <time>2019-03-10T12:36:26Z</time>
      </trkpt>
      <trkpt lat="46.22919" lon="4.18558">
        <ele>355</ele>
        <time>2019-03-10T12:37:26Z</time>
      </trkpt>
      <trkpt lat="46.22919" lon="4.18558">
        <ele>355</ele>
        <time>2019-03-10T12:38:26Z</time>
      </trkpt>
      <trkpt lat="46.22983" lon="4.18553">
        <ele>358</ele>
        <time>2019-03-10T12:39:26Z</time>
      </trkpt>
      <trkpt lat="46.22983" lon="4.18553">
        <ele>358</ele>
        <time>2019-03-10T12:40:26Z</time>
      </trkpt>
      <trkpt lat="46.23177" lon="4.18783">
        <ele>350</ele>
        <time>2019-03-10T12:41:26Z</time>
      </trkpt>
      <trkpt lat="46.23177" lon="4.18783">
        <ele>350</ele>
        <time>2019-03-10T12:42:26Z</time>
      </trkpt>
      <trkpt lat="46.23218" lon="4.18834">
        <ele>347</ele>
        <time>2019-03-10T12:43:26Z</time>
      </trkpt>
      <trkpt lat="46.23221" lon="4.18839">
        <ele>347</ele>
        <time>2019-03-10T12:44:26Z</time>
      </trkpt>
      <trkpt lat="46.23216" lon="4.18846">
        <ele>346</ele>
        <time>2019-03-10T12:45:26Z</time>
      </trkpt>
      <trkpt lat="46.23178" lon="4.18866">
        <ele>341</ele>
        <time>2019-03-10T12:46:26Z</time>
      </trkpt>
      <trkpt lat="46.23161" lon="4.18869">
        <ele>340</ele>
        <time>2019-03-10T12:47:26Z</time>
      </trkpt>
      <trkpt lat="46.23154" lon="4.18887">
        <ele>338</ele>
        <time>2019-03-10T12:48:26Z</time>
      </trkpt>
      <trkpt lat="46.23132" lon="4.18955">
        <ele>334</ele>
        <time>2019-03-10T12:49:26Z</time>
      </trkpt>
      <trkpt lat="46.2311" lon="4.18997">
        <ele>334</ele>
        <time>2019-03-10T12:50:26Z</time>
      </trkpt>
      <trkpt lat="46.23089" lon="4.19055">
        <ele>336</ele>
        <time>2019-03-10T12:51:26Z</time>
      </trkpt>
      <trkpt lat="46.23083" lon="4.19081">
        <ele>337</ele>
        <time>2019-03-10T12:52:26Z</time>
      </trkpt>
      <trkpt lat="46.23077" lon="4.19094">
        <ele>339</ele>
        <time>2019-03-10T12:53:26Z</time>
      </trkpt>
      <trkpt lat="46.23064" lon="4.19102">
        <ele>340</ele>
        <time>2019-03-10T12:54:26Z</time>
      </trkpt>
      <trkpt lat="46.23041" lon="4.19108">
        <ele>343</ele>
        <time>2019-03-10T12:55:26Z</time>
      </trkpt>
      <trkpt lat="46.23009" lon="4.19118">
        <ele>346</ele>
        <time>2019-03-10T12:56:26Z</time>
      </trkpt>
      <trkpt lat="46.22967" lon="4.19142">
        <ele>350</ele>
        <time>2019-03-10T12:57:26Z</time>
      </trkpt>
      <trkpt lat="46.22938" lon="4.19177">
        <ele>355</ele>
        <time>2019-03-10T12:58:26Z</time>
      </trkpt>
      <trkpt lat="46.22922" lon="4.19204">
        <ele>357</ele>
        <time>2019-03-10T12:59:26Z</time>
      </trkpt>
      <trkpt lat="46.22917" lon="4.19222">
        <ele>359</ele>
        <time>2019-03-10T13:00:26Z</time>
      </trkpt>
      <trkpt lat="46.22906" lon="4.19338">
        <ele>365</ele>
        <time>2019-03-10T13:01:26Z</time>
      </trkpt>
      <trkpt lat="46.22894" lon="4.19374">
        <ele>368</ele>
        <time>2019-03-10T13:02:26Z</time>
      </trkpt>
      <trkpt lat="46.2287" lon="4.19426">
        <ele>372</ele>
        <time>2019-03-10T13:03:26Z</time>
      </trkpt>
      <trkpt lat="46.22871" lon="4.19444">
        <ele>373</ele>
        <time>2019-03-10T13:04:26Z</time>
      </trkpt>
      <trkpt lat="46.22749" lon="4.19392">
        <ele>373</ele>
        <time>2019-03-10T13:05:26Z</time>
      </trkpt>
      <trkpt lat="46.22749" lon="4.19392">
        <ele>373</ele>
        <time>2019-03-10T13:06:26Z</time>
      </trkpt>
      <trkpt lat="46.22714" lon="4.19389">
        <ele>375</ele>
        <time>2019-03-10T13:07:26Z</time>
      </trkpt>
      <trkpt lat="46.22714" lon="4.19389">
        <ele>375</ele>
        <time>2019-03-10T13:08:26Z</time>
      </trkpt>
      <trkpt lat="46.22686" lon="4.19419">
        <ele>378</ele>
        <time>2019-03-10T13:09:26Z</time>
      </trkpt>
      <trkpt lat="46.22686" lon="4.19419">
        <ele>378</ele>
        <time>2019-03-10T13:10:26Z</time>
      </trkpt>
      <trkpt lat="46.22656" lon="4.1943">
        <ele>380</ele>
        <time>2019-03-10T13:11:26Z</time>
      </trkpt>
      <trkpt lat="46.22656" lon="4.1943">
        <ele>380</ele>
        <time>2019-03-10T13:12:26Z</time>
      </trkpt>
      <trkpt lat="46.22623" lon="4.19473">
        <ele>382</ele>
        <time>2019-03-10T13:13:26Z</time>
      </trkpt>
      <trkpt lat="46.22623" lon="4.19473">
        <ele>382</ele>
        <time>2019-03-10T13:14:26Z</time>
      </trkpt>
      <trkpt lat="46.22604" lon="4.19538">
        <ele>384</ele>
        <time>2019-03-10T13:15:26Z</time>
      </trkpt>
      <trkpt lat="46.22604" lon="4.19538">
        <ele>384</ele>
        <time>2019-03-10T13:16:26Z</time>
      </trkpt>
      <trkpt lat="46.22583" lon="4.19615">
        <ele>386</ele>
        <time>2019-03-10T13:17:26Z</time>
      </trkpt>
      <trkpt lat="46.22583" lon="4.19615">
        <ele>386</ele>
        <time>2019-03-10T13:18:26Z</time>
      </trkpt>
      <trkpt lat="46.22575" lon="4.1965">
        <ele>387</ele>
        <time>2019-03-10T13:19:26Z</time>
      </trkpt>
      <trkpt lat="46.22575" lon="4.1965">
        <ele>387</ele>
        <time>2019-03-10T13:20:26Z</time>
      </trkpt>
      <trkpt lat="46.22642" lon="4.19668">
        <ele>387</ele>
        <time>2019-03-10T13:21:26Z</time>
      </trkpt>
      <trkpt lat="46.22642" lon="4.19668">
        <ele>387</ele>
        <time>2019-03-10T13:22:26Z</time>
      </trkpt>
      <trkpt lat="46.22781" lon="4.19793">
        <ele>390</ele>
        <time>2019-03-10T13:23:26Z</time>
      </trkpt>
      <trkpt lat="46.22781" lon="4.19793">
        <ele>390</ele>
        <time>2019-03-10T13:24:26Z</time>
      </trkpt>
      <trkpt lat="46.22886" lon="4.19882">
        <ele>391</ele>
        <time>2019-03-10T13:25:26Z</time>
      </trkpt>
      <trkpt lat="46.22886" lon="4.19882">
        <ele>391</ele>
        <time>2019-03-10T13:26:26Z</time>
      </trkpt>
      <trkpt lat="46.22958" lon="4.19959">
        <ele>392</ele>
        <time>2019-03-10T13:27:26Z</time>
      </trkpt>
      <trkpt lat="46.22958" lon="4.19959">
        <ele>392</ele>
        <time>2019-03-10T13:28:26Z</time>
      </trkpt>
      <trkpt lat="46.23098" lon="4.19969">
        <ele>390</ele>
        <time>2019-03-10T13:29:26Z</time>
      </trkpt>
      <trkpt lat="46.23098" lon="4.19969">
        <ele>390</ele>
        <time>2019-03-10T13:30:26Z</time>
      </trkpt>
      <trkpt lat="46.23123" lon="4.19853">
        <ele>388</ele>
        <time>2019-03-10T13:31:26Z</time>
      </trkpt>
      <trkpt lat="46.23121" lon="4.19852">
        <ele>388</ele>
        <time>2019-03-10T13:32:26Z</time>
      </trkpt>
      <trkpt lat="46.23126" lon="4.19834">
        <ele>387</ele>
        <time>2019-03-10T13:33:26Z</time>
      </trkpt>
      <trkpt lat="46.23126" lon="4.19834">
        <ele>387</ele>
        <time>2019-03-10T13:34:26Z</time>
      </trkpt>
      <trkpt lat="46.23142" lon="4.19765">
        <ele>385</ele>
        <time>2019-03-10T13:35:26Z</time>
      </trkpt>
      <trkpt lat="46.23142" lon="4.19765">
        <ele>385</ele>
        <time>2019-03-10T13:36:26Z</time>
      </trkpt>
      <trkpt lat="46.23214" lon="4.19711">
        <ele>381</ele>
        <time>2019-03-10T13:37:26Z</time>
      </trkpt>
      <trkpt lat="46.23214" lon="4.19711">
        <ele>381</ele>
        <time>2019-03-10T13:38:26Z</time>
      </trkpt>
      <trkpt lat="46.23302" lon="4.1967">
        <ele>376</ele>
        <time>2019-03-10T13:39:26Z</time>
      </trkpt>
      <trkpt lat="46.23302" lon="4.1967">
        <ele>376</ele>
        <time>2019-03-10T13:40:26Z</time>
      </trkpt>
      <trkpt lat="46.23382" lon="4.19614">
        <ele>369</ele>
        <time>2019-03-10T13:41:26Z</time>
      </trkpt>
      <trkpt lat="46.23382" lon="4.19614">
        <ele>369</ele>
        <time>2019-03-10T13:42:26Z</time>
      </trkpt>
      <trkpt lat="46.23409" lon="4.19579">
        <ele>366</ele>
        <time>2019-03-10T13:43:26Z</time>
      </trkpt>
      <trkpt lat="46.23409" lon="4.19579">
        <ele>366</ele>
        <time>2019-03-10T13:44:26Z</time>
      </trkpt>
      <trkpt lat="46.23419" lon="4.19533">
        <ele>364</ele>
        <time>2019-03-10T13:45:26Z</time>
      </trkpt>
      <trkpt lat="46.23419" lon="4.19533">
        <ele>364</ele>
        <time>2019-03-10T13:46:26Z</time>
      </trkpt>
      <trkpt lat="46.23426" lon="4.19494">
        <ele>362</ele>
        <time>2019-03-10T13:47:26Z</time>
      </trkpt>
      <trkpt lat="46.23426" lon="4.19494">
        <ele>362</ele>
        <time>2019-03-10T13:48:26Z</time>
      </trkpt>
      <trkpt lat="46.23446" lon="4.19447">
        <ele>359</ele>
        <time>2019-03-10T13:49:26Z</time>
      </trkpt>
      <trkpt lat="46.23446" lon="4.19447">
        <ele>359</ele>
        <time>2019-03-10T13:50:26Z</time>
      </trkpt>
      <trkpt lat="46.23488" lon="4.19395">
        <ele>355</ele>
        <time>2019-03-10T13:51:26Z</time>
      </trkpt>
      <trkpt lat="46.23488" lon="4.19395">
        <ele>355</ele>
        <time>2019-03-10T13:52:26Z</time>
      </trkpt>
      <trkpt lat="46.23489" lon="4.19311">
        <ele>349</ele>
        <time>2019-03-10T13:53:26Z</time>
      </trkpt>
      <trkpt lat="46.23489" lon="4.19311">
        <ele>349</ele>
        <time>2019-03-10T13:54:26Z</time>
      </trkpt>
      <trkpt lat="46.23525" lon="4.19351">
        <ele>349</ele>
        <time>2019-03-10T13:55:26Z</time>
      </trkpt>
      <trkpt lat="46.23525" lon="4.19351">
        <ele>349</ele>
        <time>2019-03-10T13:56:26Z</time>
      </trkpt>
      <trkpt lat="46.23587" lon="4.19369">
        <ele>344</ele>
        <time>2019-03-10T13:57:26Z</time>
      </trkpt>
      <trkpt lat="46.23587" lon="4.19369">
        <ele>344</ele>
        <time>2019-03-10T13:58:26Z</time>
      </trkpt>
      <trkpt lat="46.23629" lon="4.19389">
        <ele>344</ele>
        <time>2019-03-10T13:59:26Z</time>
      </trkpt>
      <trkpt lat="46.23629" lon="4.19389">
        <ele>344</ele>
        <time>2019-03-10T14:00:26Z</time>
      </trkpt>
      <trkpt lat="46.23653" lon="4.19442">
        <ele>347</ele>
        <time>2019-03-10T14:01:26Z</time>
      </trkpt>
      <trkpt lat="46.23653" lon="4.19442">
        <ele>347</ele>
        <time>2019-03-10T14:02:26Z</time>
      </trkpt>
      <trkpt lat="46.23676" lon="4.19521">
        <ele>353</ele>
        <time>2019-03-10T14:03:26Z</time>
      </trkpt>
      <trkpt lat="46.23676" lon="4.19521">
        <ele>353</ele>
        <time>2019-03-10T14:04:26Z</time>
      </trkpt>
      <trkpt lat="46.23634" lon="4.19568">
        <ele>357</ele>
        <time>2019-03-10T14:05:26Z</time>
      </trkpt>
      <trkpt lat="46.23634" lon="4.19568">
        <ele>357</ele>
        <time>2019-03-10T14:06:26Z</time>
      </trkpt>
      <trkpt lat="46.23622" lon="4.19594">
        <ele>359</ele>
        <time>2019-03-10T14:07:26Z</time>
      </trkpt>
      <trkpt lat="46.23622" lon="4.19594">
        <ele>359</ele>
        <time>2019-03-10T14:08:26Z</time>
      </trkpt>
      <trkpt lat="46.23622" lon="4.19647">
        <ele>364</ele>
        <time>2019-03-10T14:09:26Z</time>
      </trkpt>
      <trkpt lat="46.23622" lon="4.19647">
        <ele>364</ele>
        <time>2019-03-10T14:10:26Z</time>
      </trkpt>
      <trkpt lat="46.23625" lon="4.19711">
        <ele>369</ele>
        <time>2019-03-10T14:11:26Z</time>
      </trkpt>
      <trkpt lat="46.23625" lon="4.19711">
        <ele>369</ele>
        <time>2019-03-10T14:12:26Z</time>
      </trkpt>
      <trkpt lat="46.23653" lon="4.19738">
        <ele>372</ele>
        <time>2019-03-10T14:13:26Z</time>
      </trkpt>
      <trkpt lat="46.23653" lon="4.19738">
        <ele>372</ele>
        <time>2019-03-10T14:14:26Z</time>
      </trkpt>
      <trkpt lat="46.23697" lon="4.19732">
        <ele>374</ele>
        <time>2019-03-10T14:15:26Z</time>
      </trkpt>
      <trkpt lat="46.23697" lon="4.19732">
        <ele>374</ele>
        <time>2019-03-10T14:16:26Z</time>
      </trkpt>
      <trkpt lat="46.2374" lon="4.19723">
        <ele>376</ele>
        <time>2019-03-10T14:17:26Z</time>
      </trkpt>
      <trkpt lat="46.2374" lon="4.19723">
        <ele>376</ele>
        <time>2019-03-10T14:18:26Z</time>
      </trkpt>
      <trkpt lat="46.2378" lon="4.19685">
        <ele>377</ele>
        <time>2019-03-10T14:19:26Z</time>
      </trkpt>
      <trkpt lat="46.2378" lon="4.19685">
        <ele>377</ele>
        <time>2019-03-10T14:20:26Z</time>
      </trkpt>
      <trkpt lat="46.23816" lon="4.19612">
        <ele>371</ele>
        <time>2019-03-10T14:21:26Z</time>
      </trkpt>
      <trkpt lat="46.23816" lon="4.19612">
        <ele>371</ele>
        <time>2019-03-10T14:22:26Z</time>
      </trkpt>
      <trkpt lat="46.23851" lon="4.19557">
        <ele>364</ele>
        <time>2019-03-10T14:23:26Z</time>
      </trkpt>
      <trkpt lat="46.23851" lon="4.19557">
        <ele>364</ele>
        <time>2019-03-10T14:24:26Z</time>
      </trkpt>
      <trkpt lat="46.23891" lon="4.19542">
        <ele>362</ele>
        <time>2019-03-10T14:25:26Z</time>
      </trkpt>
      <trkpt lat="46.23891" lon="4.19542">
        <ele>362</ele>
        <time>2019-03-10T14:26:26Z</time>
      </trkpt>
      <trkpt lat="46.23929" lon="4.1952">
        <ele>359</ele>
        <time>2019-03-10T14:27:26Z</time>
      </trkpt>
      <trkpt lat="46.23929" lon="4.1952">
        <ele>359</ele>
        <time>2019-03-10T14:28:26Z</time>
      </trkpt>
      <trkpt lat="46.23966" lon="4.19471">
        <ele>356</ele>
        <time>2019-03-10T14:29:26Z</time>
      </trkpt>
      <trkpt lat="46.23966" lon="4.19471">
        <ele>356</ele>
        <time>2019-03-10T14:30:26Z</time>
      </trkpt>
      <trkpt lat="46.24048" lon="4.19441">
        <ele>355</ele>
        <time>2019-03-10T14:31:26Z</time>
      </trkpt>
      <trkpt lat="46.24048" lon="4.19441">
        <ele>355</ele>
        <time>2019-03-10T14:32:26Z</time>
      </trkpt>
      <trkpt lat="46.24092" lon="4.1946">
        <ele>356</ele>
        <time>2019-03-10T14:33:26Z</time>
      </trkpt>
      <trkpt lat="46.24092" lon="4.1946">
        <ele>356</ele>
        <time>2019-03-10T14:34:26Z</time>
      </trkpt>
      <trkpt lat="46.24113" lon="4.195">
        <ele>357</ele>
        <time>2019-03-10T14:35:26Z</time>
      </trkpt>
      <trkpt lat="46.24113" lon="4.195">
        <ele>357</ele>
        <time>2019-03-10T14:36:26Z</time>
      </trkpt>
      <trkpt lat="46.24146" lon="4.19533">
        <ele>359</ele>
        <time>2019-03-10T14:37:26Z</time>
      </trkpt>
      <trkpt lat="46.24145" lon="4.19536">
        <ele>360</ele>
        <time>2019-03-10T14:38:26Z</time>
      </trkpt>
      <trkpt lat="46.2417" lon="4.19544">
        <ele>360</ele>
        <time>2019-03-10T14:39:26Z</time>
      </trkpt>
      <trkpt lat="46.24186" lon="4.19546">
        <ele>360</ele>
        <time>2019-03-10T14:40:26Z</time>
      </trkpt>
      <trkpt lat="46.24198" lon="4.19543">
        <ele>359</ele>
        <time>2019-03-10T14:41:26Z</time>
      </trkpt>
      <trkpt lat="46.2421" lon="4.19534">
        <ele>358</ele>
        <time>2019-03-10T14:42:26Z</time>
      </trkpt>
      <trkpt lat="46.24222" lon="4.19516">
        <ele>356</ele>
        <time>2019-03-10T14:43:26Z</time>
      </trkpt>
      <trkpt lat="46.24224" lon="4.19502">
        <ele>355</ele>
        <time>2019-03-10T14:44:26Z</time>
      </trkpt>
      <trkpt lat="46.24287" lon="4.19492">
        <ele>355</ele>
        <time>2019-03-10T14:45:26Z</time>
      </trkpt>
      <trkpt lat="46.24299" lon="4.1949">
        <ele>355</ele>
        <time>2019-03-10T14:46:26Z</time>
      </trkpt>
      <trkpt lat="46.2431" lon="4.19493">
        <ele>356</ele>
        <time>2019-03-10T14:47:26Z</time>
      </trkpt>
      <trkpt lat="46.24335" lon="4.1951">
        <ele>358</ele>
        <time>2019-03-10T14:48:26Z</time>
      </trkpt>
      <trkpt lat="46.24413" lon="4.19577">
        <ele>368</ele>
        <time>2019-03-10T14:49:26Z</time>
      </trkpt>
      <trkpt lat="46.24466" lon="4.19616">
        <ele>375</ele>
        <time>2019-03-10T14:50:26Z</time>
      </trkpt>
      <trkpt lat="46.24473" lon="4.19624">
        <ele>377</ele>
        <time>2019-03-10T14:51:26Z</time>
      </trkpt>
      <trkpt lat="46.24469" lon="4.19632">
        <ele>378</ele>
        <time>2019-03-10T14:52:26Z</time>
      </trkpt>
      <trkpt lat="46.24504" lon="4.19607">
        <ele>376</ele>
        <time>2019-03-10T14:53:26Z</time>
      </trkpt>
      <trkpt lat="46.24504" lon="4.19607">
        <ele>376</ele>
        <time>2019-03-10T14:54:26Z</time>
      </trkpt>
      <trkpt lat="46.24544" lon="4.19602">
        <ele>378</ele>
        <time>2019-03-10T14:55:26Z</time>
      </trkpt>
      <trkpt lat="46.24544" lon="4.19602">
        <ele>378</ele>
        <time>2019-03-10T14:56:26Z</time>
      </trkpt>
      <trkpt lat="46.24567" lon="4.1957">
        <ele>372</ele>
        <time>2019-03-10T14:57:26Z</time>
      </trkpt>
      <trkpt lat="46.24567" lon="4.1957">
        <ele>372</ele>
        <time>2019-03-10T14:58:26Z</time>
      </trkpt>
      <trkpt lat="46.24569" lon="4.1956">
        <ele>370</ele>
        <time>2019-03-10T14:59:26Z</time>
      </trkpt>
      <trkpt lat="46.24569" lon="4.1956">
        <ele>370</ele>
        <time>2019-03-10T15:00:26Z</time>
      </trkpt>
      <trkpt lat="46.24668" lon="4.19551">
        <ele>364</ele>
        <time>2019-03-10T15:01:26Z</time>
      </trkpt>
      <trkpt lat="46.24668" lon="4.19551">
        <ele>364</ele>
        <time>2019-03-10T15:02:26Z</time>
      </trkpt>
      <trkpt lat="46.24741" lon="4.19582">
        <ele>361</ele>
        <time>2019-03-10T15:03:26Z</time>
      </trkpt>
      <trkpt lat="46.24741" lon="4.19582">
        <ele>361</ele>
        <time>2019-03-10T15:04:26Z</time>
      </trkpt>
      <trkpt lat="46.24795" lon="4.19617">
        <ele>361</ele>
        <time>2019-03-10T15:05:26Z</time>
      </trkpt>
      <trkpt lat="46.24795" lon="4.19617">
        <ele>361</ele>
        <time>2019-03-10T15:06:26Z</time>
      </trkpt>
      <trkpt lat="46.2484" lon="4.19656">
        <ele>361</ele>
        <time>2019-03-10T15:07:26Z</time>
      </trkpt>
      <trkpt lat="46.2484" lon="4.19656">
        <ele>361</ele>
        <time>2019-03-10T15:08:26Z</time>
      </trkpt>
      <trkpt lat="46.24864" lon="4.19696">
        <ele>362</ele>
        <time>2019-03-10T15:09:26Z</time>
      </trkpt>
      <trkpt lat="46.24864" lon="4.19696">
        <ele>362</ele>
        <time>2019-03-10T15:10:26Z</time>
      </trkpt>
      <trkpt lat="46.24886" lon="4.19749">
        <ele>363</ele>
        <time>2019-03-10T15:11:26Z</time>
      </trkpt>
      <trkpt lat="46.24886" lon="4.19749">
        <ele>363</ele>
        <time>2019-03-10T15:12:26Z</time>
      </trkpt>
      <trkpt lat="46.24945" lon="4.19668">
        <ele>360</ele>
        <time>2019-03-10T15:13:26Z</time>
      </trkpt>
      <trkpt lat="46.24945" lon="4.19668">
        <ele>360</ele>
        <time>2019-03-10T15:14:26Z</time>
      </trkpt>
      <trkpt lat="46.24993" lon="4.19586">
        <ele>367</ele>
        <time>2019-03-10T15:15:26Z</time>
      </trkpt>
      <trkpt lat="46.24993" lon="4.19586">
        <ele>367</ele>
        <time>2019-03-10T15:16:26Z</time>
      </trkpt>
      <trkpt lat="46.24975" lon="4.19535">
        <ele>369</ele>
        <time>2019-03-10T15:17:26Z</time>
      </trkpt>
      <trkpt lat="46.24975" lon="4.19535">
        <ele>369</ele>
        <time>2019-03-10T15:18:26Z</time>
      </trkpt>
      <trkpt lat="46.24958" lon="4.19474">
        <ele>373</ele>
        <time>2019-03-10T15:19:26Z</time>
      </trkpt>
      <trkpt lat="46.24958" lon="4.19474">
        <ele>373</ele>
        <time>2019-03-10T15:20:26Z</time>
      </trkpt>
      <trkpt lat="46.25041" lon="4.19454">
        <ele>378</ele>
        <time>2019-03-10T15:21:26Z</time>
      </trkpt>
      <trkpt lat="46.25041" lon="4.19454">
        <ele>378</ele>
        <time>2019-03-10T15:22:26Z</time>
      </trkpt>
      <trkpt lat="46.25117" lon="4.19385">
        <ele>381</ele>
        <time>2019-03-10T15:23:26Z</time>
      </trkpt>
      <trkpt lat="46.25117" lon="4.19385">
        <ele>381</ele>
        <time>2019-03-10T15:24:26Z</time>
      </trkpt>
      <trkpt lat="46.2517" lon="4.19386">
        <ele>378</ele>
        <time>2019-03-10T15:25:26Z</time>
      </trkpt>
      <trkpt lat="46.2517" lon="4.19386">
        <ele>378</ele>
        <time>2019-03-10T15:26:26Z</time>
      </trkpt>
      <trkpt lat="46.25203" lon="4.19457">
        <ele>373</ele>
        <time>2019-03-10T15:27:26Z</time>
      </trkpt>
      <trkpt lat="46.25203" lon="4.19457">
        <ele>373</ele>
        <time>2019-03-10T15:28:26Z</time>
      </trkpt>
      <trkpt lat="46.2523" lon="4.19523">
        <ele>374</ele>
        <time>2019-03-10T15:29:26Z</time>
      </trkpt>
      <trkpt lat="46.2523" lon="4.19523">
        <ele>374</ele>
        <time>2019-03-10T15:30:26Z</time>
      </trkpt>
      <trkpt lat="46.25249" lon="4.19558">
        <ele>377</ele>
        <time>2019-03-10T15:31:26Z</time>
      </trkpt>
      <trkpt lat="46.25249" lon="4.19558">
        <ele>377</ele>
        <time>2019-03-10T15:32:26Z</time>
      </trkpt>
      <trkpt lat="46.25253" lon="4.19604">
        <ele>380</ele>
        <time>2019-03-10T15:33:26Z</time>
      </trkpt>
      <trkpt lat="46.25253" lon="4.19604">
        <ele>380</ele>
        <time>2019-03-10T15:34:26Z</time>
      </trkpt>
      <trkpt lat="46.25287" lon="4.19638">
        <ele>384</ele>
        <time>2019-03-10T15:35:26Z</time>
      </trkpt>
      <trkpt lat="46.25287" lon="4.19638">
        <ele>384</ele>
        <time>2019-03-10T15:36:26Z</time>
      </trkpt>
      <trkpt lat="46.25325" lon="4.19649">
        <ele>389</ele>
        <time>2019-03-10T15:37:26Z</time>
      </trkpt>
      <trkpt lat="46.25325" lon="4.19649">
        <ele>389</ele>
        <time>2019-03-10T15:38:26Z</time>
      </trkpt>
      <trkpt lat="46.25441" lon="4.19691">
        <ele>397</ele>
        <time>2019-03-10T15:39:26Z</time>
      </trkpt>
      <trkpt lat="46.25441" lon="4.19691">
        <ele>397</ele>
        <time>2019-03-10T15:40:26Z</time>
      </trkpt>
      <trkpt lat="46.25526" lon="4.19704">
        <ele>404</ele>
        <time>2019-03-10T15:41:26Z</time>
      </trkpt>
      <trkpt lat="46.25526" lon="4.19704">
        <ele>404</ele>
        <time>2019-03-10T15:42:26Z</time>
      </trkpt>
      <trkpt lat="46.25604" lon="4.19745">
        <ele>411</ele>
        <time>2019-03-10T15:43:26Z</time>
      </trkpt>
      <trkpt lat="46.25604" lon="4.19745">
        <ele>411</ele>
        <time>2019-03-10T15:44:26Z</time>
      </trkpt>
      <trkpt lat="46.25682" lon="4.19759">
        <ele>417</ele>
        <time>2019-03-10T15:45:26Z</time>
      </trkpt>
      <trkpt lat="46.25682" lon="4.19759">
        <ele>417</ele>
        <time>2019-03-10T15:46:26Z</time>
      </trkpt>
      <trkpt lat="46.25679" lon="4.1976">
        <ele>417</ele>
        <time>2019-03-10T15:47:26Z</time>
      </trkpt>
      <trkpt lat="46.25679" lon="4.1976">
        <ele>417</ele>
        <time>2019-03-10T15:48:26Z</time>
      </trkpt>
      <trkpt lat="46.25757" lon="4.1976">
        <ele>421</ele>
        <time>2019-03-10T15:49:26Z</time>
      </trkpt>
      <trkpt lat="46.25757" lon="4.1976">
        <ele>421</ele>
        <time>2019-03-10T15:50:26Z</time>
      </trkpt>
      <trkpt lat="46.25757" lon="4.19689">
        <ele>420</ele>
        <time>2019-03-10T15:51:26Z</time>
      </trkpt>
      <trkpt lat="46.25757" lon="4.19689">
        <ele>420</ele>
        <time>2019-03-10T15:52:26Z</time>
      </trkpt>
      <trkpt lat="46.25773" lon="4.19553">
        <ele>410</ele>
        <time>2019-03-10T15:53:26Z</time>
      </trkpt>
      <trkpt lat="46.25773" lon="4.19553">
        <ele>410</ele>
        <time>2019-03-10T15:54:26Z</time>
      </trkpt>
      <trkpt lat="46.25769" lon="4.19418">
        <ele>397</ele>
        <time>2019-03-10T15:55:26Z</time>
      </trkpt>
      <trkpt lat="46.25769" lon="4.19418">
        <ele>397</ele>
        <time>2019-03-10T15:56:26Z</time>
      </trkpt>
      <trkpt lat="46.25835" lon="4.1938">
        <ele>397</ele>
        <time>2019-03-10T15:57:26Z</time>
      </trkpt>
      <trkpt lat="46.25835" lon="4.1938">
        <ele>397</ele>
        <time>2019-03-10T15:58:26Z</time>
      </trkpt>
      <trkpt lat="46.25897" lon="4.19372">
        <ele>399</ele>
        <time>2019-03-10T15:59:26Z</time>
      </trkpt>
      <trkpt lat="46.25897" lon="4.19372">
        <ele>399</ele>
        <time>2019-03-10T16:00:26Z</time>
      </trkpt>
      <trkpt lat="46.25961" lon="4.19389">
        <ele>403</ele>
        <time>2019-03-10T16:01:26Z</time>
      </trkpt>
      <trkpt lat="46.25961" lon="4.19389">
        <ele>403</ele>
        <time>2019-03-10T16:02:26Z</time>
      </trkpt>
      <trkpt lat="46.25998" lon="4.19403">
        <ele>405</ele>
        <time>2019-03-10T16:03:26Z</time>
      </trkpt>
      <trkpt lat="46.25998" lon="4.19403">
        <ele>405</ele>
        <time>2019-03-10T16:04:26Z</time>
      </trkpt>
      <trkpt lat="46.26121" lon="4.1939">
        <ele>416</ele>
        <time>2019-03-10T16:05:26Z</time>
      </trkpt>
      <trkpt lat="46.26121" lon="4.1939">
        <ele>416</ele>
        <time>2019-03-10T16:06:26Z</time>
      </trkpt>
      <trkpt lat="46.26195" lon="4.19344">
        <ele>420</ele>
        <time>2019-03-10T16:07:26Z</time>
      </trkpt>
      <trkpt lat="46.26195" lon="4.19344">
        <ele>420</ele>
        <time>2019-03-10T16:08:26Z</time>
      </trkpt>
      <trkpt lat="46.26269" lon="4.19298">
        <ele>427</ele>
        <time>2019-03-10T16:09:26Z</time>
      </trkpt>
      <trkpt lat="46.26269" lon="4.19298">
        <ele>427</ele>
        <time>2019-03-10T16:10:26Z</time>
      </trkpt>
      <trkpt lat="46.26261" lon="4.19411">
        <ele>434</ele>
        <time>2019-03-10T16:11:26Z</time>
      </trkpt>
    </trkseg>
  </trk>
</gpx>